Airfield :
LOGIN :

Register | Disclaimer

   EN    FR    IT 

 










Legend :    VFR   Marginal VFR   IFR   Intensive IFR   Very Intensive IFR
Visi :
Ceiling :
>= 8 km
>= 3000ft
5 to 8 km
1000 to 3000 ft
1500m to 5 km
500 to 1000 ft
800 to 1500m
200 to 500 ft
< 800m
< 200 ft
Symbols :   Thunderstorms  Fog  Heavy snow  Heavy precipitations  Wind > 20 kt
SIGMETs :     Misc.  Thunderstorms  Icing  Turbulence  Mountain Waves  Volcanic Ashes






- Airport Elevation : 31 ft
- IATA code : INV


EGPE - Inverness

CURRENT METAR :
  • 070850Z 23017KT 9999 FEW032 10/06 Q1002

EXPIRED METARs :
  • 070820Z 23019KT 9999 FEW030 10/07 Q1001
  • 070750Z 22016KT 9999 FEW030 09/06 Q1001
  • 070720Z 22015KT 9999 FEW030 09/06 Q1001
  • 070650Z 22012KT 9999 VCSH FEW030 08/06 Q1001
  • 070620Z 22015KT 9999 FEW030 09/06 Q1001

TAF TAF EGPE
Valid from the 07 at 09:00 until the 07 at 18:00 UTC


070759Z 0709/0718 22012KT 9999 FEW025 SCT035
TEMPO 0709/0718 23015G25KT
PROB30
TEMPO 0712/0718 7000 SHRA
ATIS : +44 1667 464 255



MET'MAP, your aeronautical weather chart ! - Copyright ORBIFLY December 2007 - Disclaimer

ORBIFLY MET'MAP TEAM :

Programming & Development : Alexandra Zaïnal
Original concept : Baudouin d'Aumeries
Technical & hardware support : Manuel Goepfert
Assistance : Marc-Olivier Méhu




SOURCES & CREDITS :

   NOAA